Atwood, Kansas
Current Conditions -  °F | °C
As of 3:35 PM on Friday 19 Dec 2014 (Local Time) from KCBK Reporting Station
Clear Clear  
Wind Chill: 10°   Ceiling: Unl
Heat Index: 10°   Visibility: 10mi
Dew Point:   Wind: 9mph
Humidity: 50%   Direction: 240°WSW
Pressure: 30.06"   Gusts: NA
Location:  39.81°N, 101.04°W
Report Text: KCBK 192135Z AUTO 24008KT 10SM CLR 10/00 A3006 RMK AO2
Loading
Personal Weather Stations






























Interactive Weather Map New forecast layout! Learn more

10-Day Weather Forecast

Advertisements
Track Severe Weather on mobile